<?xml version="1.0" encoding="UTF-8" standalone="no" ?>
<gpx xmlns="http://www.topografix.com/GPX/1/1" xmlns:xsi="http://www.w3.org/2001/XMLSchema-instance" xsi:schemaLocation="http://www.topografix.com/GPX/1/1 http://www.topografix.com/GPX/1/1/gpx.xsd" version="1.1" creator="VisuGPX - https://www.visugpx.com">
  <metadata>
    <name>randonnée thiaville cenimont</name>
    <desc><![CDATA[randonnée pédestre départ maison forestière Cenimont  ]]></desc>
  </metadata>
  <trk>
    <name><![CDATA[AA15-02-05 16:22:47]]></name>
    <trkseg>
      <trkpt lat="48.40237" lon="6.78875">
        <ele>289.49</ele>
        <time>2015-02-05T12:11:08Z</time>
      </trkpt>
      <trkpt lat="48.40226" lon="6.7886">
        <ele>289.97</ele>
        <time>2015-02-05T12:11:23Z</time>
      </trkpt>
      <trkpt lat="48.40218" lon="6.78867">
        <ele>302.95</ele>
        <time>2015-02-05T12:12:14Z</time>
      </trkpt>
      <trkpt lat="48.40203" lon="6.78845">
        <ele>305.36</ele>
        <time>2015-02-05T12:12:31Z</time>
      </trkpt>
      <trkpt lat="48.40224" lon="6.7888">
        <ele>303.43</ele>
        <time>2015-02-05T12:13:09Z</time>
      </trkpt>
      <trkpt lat="48.40231" lon="6.78868">
        <ele>303.91</ele>
        <time>2015-02-05T12:14:56Z</time>
      </trkpt>
      <trkpt lat="48.40228" lon="6.78876">
        <ele>304.39</ele>
        <time>2015-02-05T12:17:55Z</time>
      </trkpt>
      <trkpt lat="48.40231" lon="6.78878">
        <ele>303.91</ele>
        <time>2015-02-05T12:21:24Z</time>
      </trkpt>
      <trkpt lat="48.40253" lon="6.78873">
        <ele>304.88</ele>
        <time>2015-02-05T12:23:00Z</time>
      </trkpt>
      <trkpt lat="48.40262" lon="6.78841">
        <ele>306.8</ele>
        <time>2015-02-05T12:23:24Z</time>
      </trkpt>
      <trkpt lat="48.40267" lon="6.788">
        <ele>308.24</ele>
        <time>2015-02-05T12:23:48Z</time>
      </trkpt>
      <trkpt lat="48.40258" lon="6.78818">
        <ele>305.84</ele>
        <time>2015-02-05T12:24:21Z</time>
      </trkpt>
      <trkpt lat="48.40257" lon="6.78851">
        <ele>304.88</ele>
        <time>2015-02-05T12:24:36Z</time>
      </trkpt>
      <trkpt lat="48.4025" lon="6.78883">
        <ele>304.88</ele>
        <time>2015-02-05T12:25:31Z</time>
      </trkpt>
      <trkpt lat="48.40235" lon="6.78872">
        <ele>305.84</ele>
        <time>2015-02-05T12:26:25Z</time>
      </trkpt>
      <trkpt lat="48.40233" lon="6.78872">
        <ele>304.88</ele>
        <time>2015-02-05T12:27:47Z</time>
      </trkpt>
      <trkpt lat="48.40235" lon="6.78873">
        <ele>304.88</ele>
        <time>2015-02-05T12:28:49Z</time>
      </trkpt>
      <trkpt lat="48.40234" lon="6.78871">
        <ele>313.53</ele>
        <time>2015-02-05T12:30:19Z</time>
      </trkpt>
      <trkpt lat="48.40218" lon="6.78869">
        <ele>312.57</ele>
        <time>2015-02-05T12:33:26Z</time>
      </trkpt>
      <trkpt lat="48.40199" lon="6.7886">
        <ele>314.01</ele>
        <time>2015-02-05T12:33:43Z</time>
      </trkpt>
      <trkpt lat="48.40178" lon="6.78847">
        <ele>314.01</ele>
        <time>2015-02-05T12:34:01Z</time>
      </trkpt>
      <trkpt lat="48.40159" lon="6.78835">
        <ele>314.49</ele>
        <time>2015-02-05T12:34:16Z</time>
      </trkpt>
      <trkpt lat="48.40141" lon="6.78823">
        <ele>314.49</ele>
        <time>2015-02-05T12:34:32Z</time>
      </trkpt>
      <trkpt lat="48.40123" lon="6.78809">
        <ele>315.93</ele>
        <time>2015-02-05T12:34:49Z</time>
      </trkpt>
      <trkpt lat="48.40137" lon="6.78773">
        <ele>319.78</ele>
        <time>2015-02-05T12:35:19Z</time>
      </trkpt>
      <trkpt lat="48.40168" lon="6.78738">
        <ele>324.58</ele>
        <time>2015-02-05T12:35:58Z</time>
      </trkpt>
      <trkpt lat="48.4019" lon="6.78691">
        <ele>324.58</ele>
        <time>2015-02-05T12:36:29Z</time>
      </trkpt>
      <trkpt lat="48.40197" lon="6.78647">
        <ele>325.06</ele>
        <time>2015-02-05T12:36:58Z</time>
      </trkpt>
      <trkpt lat="48.40204" lon="6.78593">
        <ele>327.95</ele>
        <time>2015-02-05T12:37:35Z</time>
      </trkpt>
      <trkpt lat="48.40197" lon="6.78541">
        <ele>330.83</ele>
        <time>2015-02-05T12:38:05Z</time>
      </trkpt>
      <trkpt lat="48.40191" lon="6.78507">
        <ele>331.31</ele>
        <time>2015-02-05T12:38:25Z</time>
      </trkpt>
      <trkpt lat="48.40199" lon="6.78465">
        <ele>332.75</ele>
        <time>2015-02-05T12:38:50Z</time>
      </trkpt>
      <trkpt lat="48.40199" lon="6.78413">
        <ele>334.2</ele>
        <time>2015-02-05T12:39:20Z</time>
      </trkpt>
      <trkpt lat="48.40189" lon="6.78375">
        <ele>332.75</ele>
        <time>2015-02-05T12:39:42Z</time>
      </trkpt>
      <trkpt lat="48.40179" lon="6.78329">
        <ele>333.23</ele>
        <time>2015-02-05T12:40:08Z</time>
      </trkpt>
      <trkpt lat="48.40168" lon="6.78296">
        <ele>336.6</ele>
        <time>2015-02-05T12:40:35Z</time>
      </trkpt>
      <trkpt lat="48.40153" lon="6.78261">
        <ele>338.52</ele>
        <time>2015-02-05T12:41:02Z</time>
      </trkpt>
      <trkpt lat="48.40137" lon="6.78225">
        <ele>341.89</ele>
        <time>2015-02-05T12:41:37Z</time>
      </trkpt>
      <trkpt lat="48.40123" lon="6.78218">
        <ele>344.29</ele>
        <time>2015-02-05T12:42:38Z</time>
      </trkpt>
      <trkpt lat="48.40122" lon="6.78248">
        <ele>344.77</ele>
        <time>2015-02-05T12:44:57Z</time>
      </trkpt>
      <trkpt lat="48.40121" lon="6.78295">
        <ele>346.69</ele>
        <time>2015-02-05T12:45:24Z</time>
      </trkpt>
      <trkpt lat="48.40124" lon="6.78343">
        <ele>348.13</ele>
        <time>2015-02-05T12:45:53Z</time>
      </trkpt>
      <trkpt lat="48.40128" lon="6.78382">
        <ele>350.06</ele>
        <time>2015-02-05T12:46:18Z</time>
      </trkpt>
      <trkpt lat="48.40124" lon="6.7843">
        <ele>351.98</ele>
        <time>2015-02-05T12:46:47Z</time>
      </trkpt>
      <trkpt lat="48.40112" lon="6.78475">
        <ele>352.46</ele>
        <time>2015-02-05T12:47:18Z</time>
      </trkpt>
      <trkpt lat="48.40105" lon="6.78525">
        <ele>353.9</ele>
        <time>2015-02-05T12:47:49Z</time>
      </trkpt>
      <trkpt lat="48.40079" lon="6.78534">
        <ele>353.9</ele>
        <time>2015-02-05T12:48:12Z</time>
      </trkpt>
      <trkpt lat="48.40055" lon="6.78525">
        <ele>353.42</ele>
        <time>2015-02-05T12:48:35Z</time>
      </trkpt>
      <trkpt lat="48.4003" lon="6.78513">
        <ele>353.42</ele>
        <time>2015-02-05T12:48:57Z</time>
      </trkpt>
      <trkpt lat="48.40007" lon="6.78496">
        <ele>352.94</ele>
        <time>2015-02-05T12:49:20Z</time>
      </trkpt>
      <trkpt lat="48.39985" lon="6.7848">
        <ele>352.46</ele>
        <time>2015-02-05T12:49:43Z</time>
      </trkpt>
      <trkpt lat="48.39959" lon="6.78455">
        <ele>352.46</ele>
        <time>2015-02-05T12:50:13Z</time>
      </trkpt>
      <trkpt lat="48.39934" lon="6.78439">
        <ele>352.94</ele>
        <time>2015-02-05T12:50:42Z</time>
      </trkpt>
      <trkpt lat="48.39903" lon="6.78406">
        <ele>352.46</ele>
        <time>2015-02-05T12:51:16Z</time>
      </trkpt>
      <trkpt lat="48.39881" lon="6.78372">
        <ele>353.42</ele>
        <time>2015-02-05T12:51:44Z</time>
      </trkpt>
      <trkpt lat="48.39858" lon="6.78336">
        <ele>353.42</ele>
        <time>2015-02-05T12:52:12Z</time>
      </trkpt>
      <trkpt lat="48.39832" lon="6.78299">
        <ele>353.42</ele>
        <time>2015-02-05T12:52:44Z</time>
      </trkpt>
      <trkpt lat="48.39812" lon="6.78263">
        <ele>352.94</ele>
        <time>2015-02-05T12:53:15Z</time>
      </trkpt>
      <trkpt lat="48.39791" lon="6.78229">
        <ele>352.94</ele>
        <time>2015-02-05T12:53:42Z</time>
      </trkpt>
      <trkpt lat="48.39775" lon="6.78195">
        <ele>352.46</ele>
        <time>2015-02-05T12:54:08Z</time>
      </trkpt>
      <trkpt lat="48.39761" lon="6.78156">
        <ele>352.46</ele>
        <time>2015-02-05T12:54:35Z</time>
      </trkpt>
      <trkpt lat="48.39743" lon="6.78123">
        <ele>352.94</ele>
        <time>2015-02-05T12:55:02Z</time>
      </trkpt>
      <trkpt lat="48.39727" lon="6.78087">
        <ele>353.9</ele>
        <time>2015-02-05T12:55:28Z</time>
      </trkpt>
      <trkpt lat="48.39715" lon="6.78055">
        <ele>353.42</ele>
        <time>2015-02-05T12:55:49Z</time>
      </trkpt>
      <trkpt lat="48.39709" lon="6.7802">
        <ele>354.38</ele>
        <time>2015-02-05T12:56:12Z</time>
      </trkpt>
      <trkpt lat="48.39709" lon="6.77982">
        <ele>355.34</ele>
        <time>2015-02-05T12:56:38Z</time>
      </trkpt>
      <trkpt lat="48.39715" lon="6.7794">
        <ele>357.27</ele>
        <time>2015-02-05T12:57:06Z</time>
      </trkpt>
      <trkpt lat="48.39722" lon="6.77899">
        <ele>358.71</ele>
        <time>2015-02-05T12:57:32Z</time>
      </trkpt>
      <trkpt lat="48.39734" lon="6.77857">
        <ele>361.59</ele>
        <time>2015-02-05T12:58:01Z</time>
      </trkpt>
      <trkpt lat="48.3974" lon="6.77813">
        <ele>363.52</ele>
        <time>2015-02-05T12:58:32Z</time>
      </trkpt>
      <trkpt lat="48.39738" lon="6.77769">
        <ele>364.48</ele>
        <time>2015-02-05T12:58:59Z</time>
      </trkpt>
      <trkpt lat="48.3973" lon="6.77732">
        <ele>367.84</ele>
        <time>2015-02-05T12:59:25Z</time>
      </trkpt>
      <trkpt lat="48.39727" lon="6.77693">
        <ele>369.28</ele>
        <time>2015-02-05T12:59:49Z</time>
      </trkpt>
      <trkpt lat="48.39732" lon="6.77652">
        <ele>371.21</ele>
        <time>2015-02-05T13:00:17Z</time>
      </trkpt>
      <trkpt lat="48.39743" lon="6.7761">
        <ele>373.13</ele>
        <time>2015-02-05T13:00:44Z</time>
      </trkpt>
      <trkpt lat="48.39755" lon="6.77558">
        <ele>376.01</ele>
        <time>2015-02-05T13:01:14Z</time>
      </trkpt>
      <trkpt lat="48.3977" lon="6.77522">
        <ele>379.38</ele>
        <time>2015-02-05T13:01:44Z</time>
      </trkpt>
      <trkpt lat="48.39785" lon="6.7749">
        <ele>382.26</ele>
        <time>2015-02-05T13:02:09Z</time>
      </trkpt>
      <trkpt lat="48.39804" lon="6.77465">
        <ele>384.18</ele>
        <time>2015-02-05T13:02:34Z</time>
      </trkpt>
      <trkpt lat="48.39841" lon="6.77442">
        <ele>387.07</ele>
        <time>2015-02-05T13:03:11Z</time>
      </trkpt>
      <trkpt lat="48.39876" lon="6.77439">
        <ele>390.43</ele>
        <time>2015-02-05T13:03:43Z</time>
      </trkpt>
      <trkpt lat="48.39914" lon="6.77422">
        <ele>392.84</ele>
        <time>2015-02-05T13:04:17Z</time>
      </trkpt>
      <trkpt lat="48.39925" lon="6.7738">
        <ele>395.72</ele>
        <time>2015-02-05T13:04:46Z</time>
      </trkpt>
      <trkpt lat="48.39945" lon="6.77343">
        <ele>397.64</ele>
        <time>2015-02-05T13:05:17Z</time>
      </trkpt>
      <trkpt lat="48.39976" lon="6.77312">
        <ele>398.6</ele>
        <time>2015-02-05T13:05:51Z</time>
      </trkpt>
      <trkpt lat="48.39994" lon="6.77282">
        <ele>399.08</ele>
        <time>2015-02-05T13:06:16Z</time>
      </trkpt>
      <trkpt lat="48.40011" lon="6.77252">
        <ele>399.08</ele>
        <time>2015-02-05T13:06:44Z</time>
      </trkpt>
      <trkpt lat="48.40046" lon="6.77234">
        <ele>398.6</ele>
        <time>2015-02-05T13:07:15Z</time>
      </trkpt>
      <trkpt lat="48.40045" lon="6.77178">
        <ele>399.08</ele>
        <time>2015-02-05T13:07:48Z</time>
      </trkpt>
      <trkpt lat="48.40028" lon="6.77144">
        <ele>398.6</ele>
        <time>2015-02-05T13:08:13Z</time>
      </trkpt>
      <trkpt lat="48.40011" lon="6.77109">
        <ele>400.05</ele>
        <time>2015-02-05T13:08:41Z</time>
      </trkpt>
      <trkpt lat="48.39989" lon="6.77076">
        <ele>400.53</ele>
        <time>2015-02-05T13:09:06Z</time>
      </trkpt>
      <trkpt lat="48.39969" lon="6.77038">
        <ele>401.97</ele>
        <time>2015-02-05T13:09:31Z</time>
      </trkpt>
      <trkpt lat="48.39955" lon="6.77011">
        <ele>402.45</ele>
        <time>2015-02-05T13:09:52Z</time>
      </trkpt>
      <trkpt lat="48.39936" lon="6.76986">
        <ele>402.93</ele>
        <time>2015-02-05T13:10:20Z</time>
      </trkpt>
      <trkpt lat="48.39933" lon="6.76991">
        <ele>401.49</ele>
        <time>2015-02-05T13:14:23Z</time>
      </trkpt>
      <trkpt lat="48.39928" lon="6.7701">
        <ele>401.97</ele>
        <time>2015-02-05T13:16:26Z</time>
      </trkpt>
      <trkpt lat="48.39905" lon="6.77027">
        <ele>403.89</ele>
        <time>2015-02-05T13:19:16Z</time>
      </trkpt>
      <trkpt lat="48.39873" lon="6.77038">
        <ele>406.29</ele>
        <time>2015-02-05T13:20:01Z</time>
      </trkpt>
      <trkpt lat="48.39857" lon="6.77074">
        <ele>406.77</ele>
        <time>2015-02-05T13:20:44Z</time>
      </trkpt>
      <trkpt lat="48.39832" lon="6.77085">
        <ele>408.22</ele>
        <time>2015-02-05T13:21:19Z</time>
      </trkpt>
      <trkpt lat="48.3981" lon="6.77091">
        <ele>408.7</ele>
        <time>2015-02-05T13:21:54Z</time>
      </trkpt>
      <trkpt lat="48.39788" lon="6.77119">
        <ele>406.77</ele>
        <time>2015-02-05T13:22:26Z</time>
      </trkpt>
      <trkpt lat="48.39762" lon="6.7713">
        <ele>404.37</ele>
        <time>2015-02-05T13:22:55Z</time>
      </trkpt>
      <trkpt lat="48.39736" lon="6.7715">
        <ele>399.57</ele>
        <time>2015-02-05T13:23:30Z</time>
      </trkpt>
      <trkpt lat="48.39718" lon="6.77174">
        <ele>393.32</ele>
        <time>2015-02-05T13:24:15Z</time>
      </trkpt>
      <trkpt lat="48.39699" lon="6.7719">
        <ele>388.99</ele>
        <time>2015-02-05T13:24:48Z</time>
      </trkpt>
      <trkpt lat="48.39682" lon="6.77214">
        <ele>382.74</ele>
        <time>2015-02-05T13:25:23Z</time>
      </trkpt>
      <trkpt lat="48.39664" lon="6.77233">
        <ele>376.97</ele>
        <time>2015-02-05T13:25:53Z</time>
      </trkpt>
      <trkpt lat="48.39643" lon="6.77257">
        <ele>369.28</ele>
        <time>2015-02-05T13:26:14Z</time>
      </trkpt>
      <trkpt lat="48.39618" lon="6.77284">
        <ele>362.07</ele>
        <time>2015-02-05T13:26:52Z</time>
      </trkpt>
      <trkpt lat="48.39599" lon="6.77307">
        <ele>356.31</ele>
        <time>2015-02-05T13:27:24Z</time>
      </trkpt>
      <trkpt lat="48.39581" lon="6.77332">
        <ele>351.02</ele>
        <time>2015-02-05T13:27:52Z</time>
      </trkpt>
      <trkpt lat="48.39562" lon="6.77318">
        <ele>348.62</ele>
        <time>2015-02-05T13:28:09Z</time>
      </trkpt>
      <trkpt lat="48.39545" lon="6.77304">
        <ele>345.73</ele>
        <time>2015-02-05T13:28:26Z</time>
      </trkpt>
      <trkpt lat="48.39527" lon="6.77276">
        <ele>342.37</ele>
        <time>2015-02-05T13:28:54Z</time>
      </trkpt>
      <trkpt lat="48.39501" lon="6.77247">
        <ele>335.16</ele>
        <time>2015-02-05T13:29:38Z</time>
      </trkpt>
      <trkpt lat="48.39465" lon="6.77266">
        <ele>328.43</ele>
        <time>2015-02-05T13:30:26Z</time>
      </trkpt>
      <trkpt lat="48.39461" lon="6.77303">
        <ele>326.02</ele>
        <time>2015-02-05T13:30:49Z</time>
      </trkpt>
      <trkpt lat="48.39457" lon="6.77331">
        <ele>325.54</ele>
        <time>2015-02-05T13:32:20Z</time>
      </trkpt>
      <trkpt lat="48.39455" lon="6.7732">
        <ele>325.54</ele>
        <time>2015-02-05T13:33:41Z</time>
      </trkpt>
      <trkpt lat="48.39466" lon="6.77304">
        <ele>326.5</ele>
        <time>2015-02-05T13:35:32Z</time>
      </trkpt>
      <trkpt lat="48.39464" lon="6.77296">
        <ele>328.43</ele>
        <time>2015-02-05T13:44:45Z</time>
      </trkpt>
      <trkpt lat="48.39477" lon="6.77251">
        <ele>331.79</ele>
        <time>2015-02-05T13:45:15Z</time>
      </trkpt>
      <trkpt lat="48.3948" lon="6.77213">
        <ele>339</ele>
        <time>2015-02-05T13:45:55Z</time>
      </trkpt>
      <trkpt lat="48.39486" lon="6.77152">
        <ele>347.17</ele>
        <time>2015-02-05T13:46:51Z</time>
      </trkpt>
      <trkpt lat="48.39498" lon="6.77109">
        <ele>350.54</ele>
        <time>2015-02-05T13:47:31Z</time>
      </trkpt>
      <trkpt lat="48.39486" lon="6.77061">
        <ele>353.42</ele>
        <time>2015-02-05T13:48:14Z</time>
      </trkpt>
      <trkpt lat="48.39469" lon="6.77007">
        <ele>356.31</ele>
        <time>2015-02-05T13:48:56Z</time>
      </trkpt>
      <trkpt lat="48.39455" lon="6.76936">
        <ele>358.71</ele>
        <time>2015-02-05T13:49:47Z</time>
      </trkpt>
      <trkpt lat="48.39436" lon="6.76888">
        <ele>359.19</ele>
        <time>2015-02-05T13:50:29Z</time>
      </trkpt>
      <trkpt lat="48.39423" lon="6.76835">
        <ele>355.83</ele>
        <time>2015-02-05T13:51:07Z</time>
      </trkpt>
      <trkpt lat="48.39387" lon="6.76832">
        <ele>351.02</ele>
        <time>2015-02-05T13:51:57Z</time>
      </trkpt>
      <trkpt lat="48.39353" lon="6.76807">
        <ele>346.69</ele>
        <time>2015-02-05T13:52:33Z</time>
      </trkpt>
      <trkpt lat="48.39328" lon="6.76777">
        <ele>343.81</ele>
        <time>2015-02-05T13:53:03Z</time>
      </trkpt>
      <trkpt lat="48.39303" lon="6.76738">
        <ele>342.37</ele>
        <time>2015-02-05T13:53:38Z</time>
      </trkpt>
      <trkpt lat="48.39289" lon="6.76688">
        <ele>342.37</ele>
        <time>2015-02-05T13:54:10Z</time>
      </trkpt>
      <trkpt lat="48.39295" lon="6.76646">
        <ele>345.73</ele>
        <time>2015-02-05T13:54:42Z</time>
      </trkpt>
      <trkpt lat="48.39289" lon="6.7659">
        <ele>349.58</ele>
        <time>2015-02-05T13:55:16Z</time>
      </trkpt>
      <trkpt lat="48.39296" lon="6.76538">
        <ele>351.98</ele>
        <time>2015-02-05T13:55:52Z</time>
      </trkpt>
      <trkpt lat="48.39303" lon="6.76502">
        <ele>353.9</ele>
        <time>2015-02-05T13:56:22Z</time>
      </trkpt>
      <trkpt lat="48.39312" lon="6.76463">
        <ele>354.86</ele>
        <time>2015-02-05T13:56:51Z</time>
      </trkpt>
      <trkpt lat="48.39324" lon="6.76405">
        <ele>354.86</ele>
        <time>2015-02-05T13:57:25Z</time>
      </trkpt>
      <trkpt lat="48.39315" lon="6.76376">
        <ele>356.31</ele>
        <time>2015-02-05T13:58:43Z</time>
      </trkpt>
      <trkpt lat="48.3932" lon="6.7639">
        <ele>356.79</ele>
        <time>2015-02-05T14:00:11Z</time>
      </trkpt>
      <trkpt lat="48.39317" lon="6.7636">
        <ele>356.79</ele>
        <time>2015-02-05T14:01:52Z</time>
      </trkpt>
      <trkpt lat="48.39311" lon="6.76353">
        <ele>356.31</ele>
        <time>2015-02-05T14:05:45Z</time>
      </trkpt>
      <trkpt lat="48.39327" lon="6.76327">
        <ele>358.71</ele>
        <time>2015-02-05T14:06:27Z</time>
      </trkpt>
      <trkpt lat="48.39362" lon="6.76299">
        <ele>361.11</ele>
        <time>2015-02-05T14:06:58Z</time>
      </trkpt>
      <trkpt lat="48.39397" lon="6.76305">
        <ele>364.48</ele>
        <time>2015-02-05T14:07:32Z</time>
      </trkpt>
      <trkpt lat="48.39425" lon="6.76327">
        <ele>368.32</ele>
        <time>2015-02-05T14:08:06Z</time>
      </trkpt>
      <trkpt lat="48.39449" lon="6.76357">
        <ele>371.69</ele>
        <time>2015-02-05T14:08:35Z</time>
      </trkpt>
      <trkpt lat="48.39471" lon="6.76383">
        <ele>375.53</ele>
        <time>2015-02-05T14:09:03Z</time>
      </trkpt>
      <trkpt lat="48.39495" lon="6.76402">
        <ele>376.97</ele>
        <time>2015-02-05T14:09:27Z</time>
      </trkpt>
      <trkpt lat="48.39514" lon="6.76415">
        <ele>380.34</ele>
        <time>2015-02-05T14:09:52Z</time>
      </trkpt>
      <trkpt lat="48.39532" lon="6.76436">
        <ele>383.22</ele>
        <time>2015-02-05T14:10:15Z</time>
      </trkpt>
      <trkpt lat="48.39546" lon="6.76462">
        <ele>386.11</ele>
        <time>2015-02-05T14:10:38Z</time>
      </trkpt>
      <trkpt lat="48.39566" lon="6.76478">
        <ele>388.51</ele>
        <time>2015-02-05T14:11:04Z</time>
      </trkpt>
      <trkpt lat="48.39589" lon="6.76497">
        <ele>392.36</ele>
        <time>2015-02-05T14:11:34Z</time>
      </trkpt>
      <trkpt lat="48.39615" lon="6.76506">
        <ele>393.8</ele>
        <time>2015-02-05T14:12:14Z</time>
      </trkpt>
      <trkpt lat="48.39643" lon="6.76517">
        <ele>395.24</ele>
        <time>2015-02-05T14:12:50Z</time>
      </trkpt>
      <trkpt lat="48.39661" lon="6.7654">
        <ele>395.24</ele>
        <time>2015-02-05T14:13:18Z</time>
      </trkpt>
      <trkpt lat="48.3968" lon="6.76558">
        <ele>395.72</ele>
        <time>2015-02-05T14:13:42Z</time>
      </trkpt>
      <trkpt lat="48.39704" lon="6.76579">
        <ele>396.68</ele>
        <time>2015-02-05T14:14:08Z</time>
      </trkpt>
      <trkpt lat="48.39721" lon="6.76622">
        <ele>395.24</ele>
        <time>2015-02-05T14:14:37Z</time>
      </trkpt>
      <trkpt lat="48.39744" lon="6.76644">
        <ele>393.8</ele>
        <time>2015-02-05T14:15:03Z</time>
      </trkpt>
      <trkpt lat="48.39765" lon="6.76664">
        <ele>391.87</ele>
        <time>2015-02-05T14:15:42Z</time>
      </trkpt>
      <trkpt lat="48.39796" lon="6.76635">
        <ele>390.91</ele>
        <time>2015-02-05T14:16:25Z</time>
      </trkpt>
      <trkpt lat="48.39828" lon="6.76599">
        <ele>390.43</ele>
        <time>2015-02-05T14:17:00Z</time>
      </trkpt>
      <trkpt lat="48.39853" lon="6.76565">
        <ele>388.51</ele>
        <time>2015-02-05T14:17:31Z</time>
      </trkpt>
      <trkpt lat="48.39865" lon="6.76529">
        <ele>386.11</ele>
        <time>2015-02-05T14:17:59Z</time>
      </trkpt>
      <trkpt lat="48.3988" lon="6.76489">
        <ele>384.18</ele>
        <time>2015-02-05T14:18:26Z</time>
      </trkpt>
      <trkpt lat="48.39891" lon="6.76455">
        <ele>383.22</ele>
        <time>2015-02-05T14:18:50Z</time>
      </trkpt>
      <trkpt lat="48.39906" lon="6.76436">
        <ele>382.26</ele>
        <time>2015-02-05T14:19:22Z</time>
      </trkpt>
      <trkpt lat="48.39926" lon="6.76458">
        <ele>381.3</ele>
        <time>2015-02-05T14:19:52Z</time>
      </trkpt>
      <trkpt lat="48.39942" lon="6.76484">
        <ele>379.86</ele>
        <time>2015-02-05T14:20:18Z</time>
      </trkpt>
      <trkpt lat="48.39947" lon="6.76536">
        <ele>378.42</ele>
        <time>2015-02-05T14:20:51Z</time>
      </trkpt>
      <trkpt lat="48.39959" lon="6.76569">
        <ele>374.09</ele>
        <time>2015-02-05T14:21:20Z</time>
      </trkpt>
      <trkpt lat="48.39953" lon="6.76604">
        <ele>371.21</ele>
        <time>2015-02-05T14:22:11Z</time>
      </trkpt>
      <trkpt lat="48.39942" lon="6.76645">
        <ele>373.13</ele>
        <time>2015-02-05T14:22:50Z</time>
      </trkpt>
      <trkpt lat="48.39952" lon="6.76689">
        <ele>373.61</ele>
        <time>2015-02-05T14:23:20Z</time>
      </trkpt>
      <trkpt lat="48.39968" lon="6.7672">
        <ele>375.05</ele>
        <time>2015-02-05T14:23:46Z</time>
      </trkpt>
      <trkpt lat="48.39995" lon="6.76727">
        <ele>376.49</ele>
        <time>2015-02-05T14:24:12Z</time>
      </trkpt>
      <trkpt lat="48.40011" lon="6.76756">
        <ele>377.94</ele>
        <time>2015-02-05T14:24:39Z</time>
      </trkpt>
      <trkpt lat="48.4003" lon="6.76778">
        <ele>380.34</ele>
        <time>2015-02-05T14:25:05Z</time>
      </trkpt>
      <trkpt lat="48.40047" lon="6.76811">
        <ele>382.74</ele>
        <time>2015-02-05T14:25:33Z</time>
      </trkpt>
      <trkpt lat="48.40052" lon="6.76849">
        <ele>385.15</ele>
        <time>2015-02-05T14:25:56Z</time>
      </trkpt>
      <trkpt lat="48.40057" lon="6.76899">
        <ele>386.11</ele>
        <time>2015-02-05T14:26:17Z</time>
      </trkpt>
      <trkpt lat="48.40069" lon="6.76929">
        <ele>387.55</ele>
        <time>2015-02-05T14:26:38Z</time>
      </trkpt>
      <trkpt lat="48.40091" lon="6.76962">
        <ele>389.95</ele>
        <time>2015-02-05T14:27:10Z</time>
      </trkpt>
      <trkpt lat="48.40113" lon="6.76991">
        <ele>390.91</ele>
        <time>2015-02-05T14:27:40Z</time>
      </trkpt>
      <trkpt lat="48.40133" lon="6.77034">
        <ele>391.39</ele>
        <time>2015-02-05T14:28:20Z</time>
      </trkpt>
      <trkpt lat="48.40158" lon="6.77066">
        <ele>392.36</ele>
        <time>2015-02-05T14:28:54Z</time>
      </trkpt>
      <trkpt lat="48.40173" lon="6.77102">
        <ele>392.84</ele>
        <time>2015-02-05T14:29:22Z</time>
      </trkpt>
      <trkpt lat="48.40186" lon="6.77142">
        <ele>394.28</ele>
        <time>2015-02-05T14:29:49Z</time>
      </trkpt>
      <trkpt lat="48.40201" lon="6.77171">
        <ele>394.76</ele>
        <time>2015-02-05T14:30:21Z</time>
      </trkpt>
      <trkpt lat="48.40209" lon="6.77182">
        <ele>395.24</ele>
        <time>2015-02-05T14:33:27Z</time>
      </trkpt>
      <trkpt lat="48.40238" lon="6.77212">
        <ele>396.2</ele>
        <time>2015-02-05T14:34:00Z</time>
      </trkpt>
      <trkpt lat="48.40265" lon="6.77248">
        <ele>395.24</ele>
        <time>2015-02-05T14:34:33Z</time>
      </trkpt>
      <trkpt lat="48.4029" lon="6.77276">
        <ele>394.28</ele>
        <time>2015-02-05T14:35:01Z</time>
      </trkpt>
      <trkpt lat="48.40319" lon="6.77294">
        <ele>393.32</ele>
        <time>2015-02-05T14:35:25Z</time>
      </trkpt>
      <trkpt lat="48.40344" lon="6.77312">
        <ele>392.84</ele>
        <time>2015-02-05T14:35:49Z</time>
      </trkpt>
      <trkpt lat="48.40367" lon="6.77325">
        <ele>393.32</ele>
        <time>2015-02-05T14:36:14Z</time>
      </trkpt>
      <trkpt lat="48.40398" lon="6.77336">
        <ele>393.32</ele>
        <time>2015-02-05T14:36:44Z</time>
      </trkpt>
      <trkpt lat="48.40428" lon="6.77354">
        <ele>392.36</ele>
        <time>2015-02-05T14:37:12Z</time>
      </trkpt>
      <trkpt lat="48.40448" lon="6.77372">
        <ele>392.36</ele>
        <time>2015-02-05T14:37:33Z</time>
      </trkpt>
      <trkpt lat="48.40471" lon="6.77384">
        <ele>391.87</ele>
        <time>2015-02-05T14:37:55Z</time>
      </trkpt>
      <trkpt lat="48.40495" lon="6.77393">
        <ele>391.87</ele>
        <time>2015-02-05T14:38:17Z</time>
      </trkpt>
      <trkpt lat="48.40515" lon="6.7741">
        <ele>391.39</ele>
        <time>2015-02-05T14:38:42Z</time>
      </trkpt>
      <trkpt lat="48.40509" lon="6.77444">
        <ele>390.91</ele>
        <time>2015-02-05T14:39:04Z</time>
      </trkpt>
      <trkpt lat="48.4051" lon="6.77474">
        <ele>389.47</ele>
        <time>2015-02-05T14:39:23Z</time>
      </trkpt>
      <trkpt lat="48.40525" lon="6.77513">
        <ele>385.63</ele>
        <time>2015-02-05T14:39:51Z</time>
      </trkpt>
      <trkpt lat="48.4054" lon="6.77552">
        <ele>380.82</ele>
        <time>2015-02-05T14:40:22Z</time>
      </trkpt>
      <trkpt lat="48.40552" lon="6.77613">
        <ele>374.09</ele>
        <time>2015-02-05T14:41:01Z</time>
      </trkpt>
      <trkpt lat="48.40565" lon="6.77675">
        <ele>366.4</ele>
        <time>2015-02-05T14:41:41Z</time>
      </trkpt>
      <trkpt lat="48.40584" lon="6.77716">
        <ele>363.04</ele>
        <time>2015-02-05T14:42:10Z</time>
      </trkpt>
      <trkpt lat="48.40602" lon="6.77765">
        <ele>358.23</ele>
        <time>2015-02-05T14:42:43Z</time>
      </trkpt>
      <trkpt lat="48.40617" lon="6.77811">
        <ele>353.42</ele>
        <time>2015-02-05T14:43:17Z</time>
      </trkpt>
      <trkpt lat="48.40627" lon="6.7786">
        <ele>350.06</ele>
        <time>2015-02-05T14:43:45Z</time>
      </trkpt>
      <trkpt lat="48.40639" lon="6.77914">
        <ele>348.13</ele>
        <time>2015-02-05T14:44:16Z</time>
      </trkpt>
      <trkpt lat="48.40638" lon="6.77967">
        <ele>345.25</ele>
        <time>2015-02-05T14:44:47Z</time>
      </trkpt>
      <trkpt lat="48.40626" lon="6.78012">
        <ele>339.96</ele>
        <time>2015-02-05T14:45:15Z</time>
      </trkpt>
      <trkpt lat="48.40638" lon="6.78058">
        <ele>337.56</ele>
        <time>2015-02-05T14:45:42Z</time>
      </trkpt>
      <trkpt lat="48.4066" lon="6.78085">
        <ele>337.56</ele>
        <time>2015-02-05T14:46:06Z</time>
      </trkpt>
      <trkpt lat="48.40663" lon="6.78128">
        <ele>337.56</ele>
        <time>2015-02-05T14:46:33Z</time>
      </trkpt>
      <trkpt lat="48.40662" lon="6.78179">
        <ele>339.96</ele>
        <time>2015-02-05T14:47:00Z</time>
      </trkpt>
      <trkpt lat="48.4066" lon="6.78221">
        <ele>340.44</ele>
        <time>2015-02-05T14:47:24Z</time>
      </trkpt>
      <trkpt lat="48.40652" lon="6.78268">
        <ele>339</ele>
        <time>2015-02-05T14:47:53Z</time>
      </trkpt>
      <trkpt lat="48.40647" lon="6.78315">
        <ele>337.56</ele>
        <time>2015-02-05T14:48:19Z</time>
      </trkpt>
      <trkpt lat="48.40638" lon="6.78361">
        <ele>335.16</ele>
        <time>2015-02-05T14:48:46Z</time>
      </trkpt>
      <trkpt lat="48.40638" lon="6.78411">
        <ele>334.2</ele>
        <time>2015-02-05T14:49:12Z</time>
      </trkpt>
      <trkpt lat="48.40639" lon="6.78454">
        <ele>331.79</ele>
        <time>2015-02-05T14:49:38Z</time>
      </trkpt>
      <trkpt lat="48.40639" lon="6.78503">
        <ele>328.91</ele>
        <time>2015-02-05T14:50:14Z</time>
      </trkpt>
      <trkpt lat="48.40637" lon="6.78543">
        <ele>327.47</ele>
        <time>2015-02-05T14:50:38Z</time>
      </trkpt>
      <trkpt lat="48.40636" lon="6.78577">
        <ele>325.54</ele>
        <time>2015-02-05T14:51:01Z</time>
      </trkpt>
      <trkpt lat="48.40638" lon="6.78608">
        <ele>324.58</ele>
        <time>2015-02-05T14:51:17Z</time>
      </trkpt>
      <trkpt lat="48.40644" lon="6.78638">
        <ele>323.62</ele>
        <time>2015-02-05T14:51:33Z</time>
      </trkpt>
      <trkpt lat="48.4065" lon="6.78667">
        <ele>322.66</ele>
        <time>2015-02-05T14:51:50Z</time>
      </trkpt>
      <trkpt lat="48.40655" lon="6.78697">
        <ele>322.18</ele>
        <time>2015-02-05T14:52:08Z</time>
      </trkpt>
      <trkpt lat="48.40655" lon="6.78699">
        <ele>321.7</ele>
        <time>2015-02-05T14:53:16Z</time>
      </trkpt>
      <trkpt lat="48.40652" lon="6.78697">
        <ele>322.18</ele>
        <time>2015-02-05T14:55:18Z</time>
      </trkpt>
      <trkpt lat="48.40637" lon="6.78669">
        <ele>321.7</ele>
        <time>2015-02-05T14:55:37Z</time>
      </trkpt>
      <trkpt lat="48.40627" lon="6.78645">
        <ele>322.66</ele>
        <time>2015-02-05T14:56:10Z</time>
      </trkpt>
      <trkpt lat="48.40617" lon="6.78609">
        <ele>321.7</ele>
        <time>2015-02-05T14:56:31Z</time>
      </trkpt>
      <trkpt lat="48.40607" lon="6.78577">
        <ele>321.22</ele>
        <time>2015-02-05T14:56:50Z</time>
      </trkpt>
      <trkpt lat="48.40599" lon="6.78546">
        <ele>320.74</ele>
        <time>2015-02-05T14:57:18Z</time>
      </trkpt>
      <trkpt lat="48.40581" lon="6.7852">
        <ele>322.18</ele>
        <time>2015-02-05T14:57:48Z</time>
      </trkpt>
      <trkpt lat="48.40562" lon="6.78498">
        <ele>323.62</ele>
        <time>2015-02-05T14:58:11Z</time>
      </trkpt>
      <trkpt lat="48.40542" lon="6.78466">
        <ele>324.58</ele>
        <time>2015-02-05T14:58:28Z</time>
      </trkpt>
      <trkpt lat="48.40521" lon="6.78444">
        <ele>325.06</ele>
        <time>2015-02-05T14:58:46Z</time>
      </trkpt>
      <trkpt lat="48.40503" lon="6.78423">
        <ele>326.5</ele>
        <time>2015-02-05T14:59:05Z</time>
      </trkpt>
      <trkpt lat="48.40488" lon="6.78401">
        <ele>327.47</ele>
        <time>2015-02-05T14:59:23Z</time>
      </trkpt>
      <trkpt lat="48.40474" lon="6.7838">
        <ele>329.39</ele>
        <time>2015-02-05T14:59:40Z</time>
      </trkpt>
      <trkpt lat="48.40461" lon="6.78357">
        <ele>331.31</ele>
        <time>2015-02-05T14:59:58Z</time>
      </trkpt>
      <trkpt lat="48.40445" lon="6.78332">
        <ele>331.79</ele>
        <time>2015-02-05T15:00:19Z</time>
      </trkpt>
      <trkpt lat="48.40431" lon="6.78306">
        <ele>333.23</ele>
        <time>2015-02-05T15:00:39Z</time>
      </trkpt>
      <trkpt lat="48.4043" lon="6.78276">
        <ele>334.2</ele>
        <time>2015-02-05T15:01:04Z</time>
      </trkpt>
      <trkpt lat="48.40413" lon="6.78254">
        <ele>335.16</ele>
        <time>2015-02-05T15:01:45Z</time>
      </trkpt>
      <trkpt lat="48.40403" lon="6.7822">
        <ele>335.64</ele>
        <time>2015-02-05T15:02:04Z</time>
      </trkpt>
      <trkpt lat="48.40403" lon="6.78187">
        <ele>337.56</ele>
        <time>2015-02-05T15:02:24Z</time>
      </trkpt>
      <trkpt lat="48.40391" lon="6.78178">
        <ele>337.08</ele>
        <time>2015-02-05T15:02:47Z</time>
      </trkpt>
      <trkpt lat="48.4037" lon="6.78167">
        <ele>338.04</ele>
        <time>2015-02-05T15:03:03Z</time>
      </trkpt>
      <trkpt lat="48.40359" lon="6.78139">
        <ele>339</ele>
        <time>2015-02-05T15:03:17Z</time>
      </trkpt>
      <trkpt lat="48.40347" lon="6.78114">
        <ele>339.96</ele>
        <time>2015-02-05T15:03:31Z</time>
      </trkpt>
      <trkpt lat="48.40321" lon="6.7808">
        <ele>341.89</ele>
        <time>2015-02-05T15:03:53Z</time>
      </trkpt>
      <trkpt lat="48.40302" lon="6.78053">
        <ele>343.81</ele>
        <time>2015-02-05T15:04:16Z</time>
      </trkpt>
      <trkpt lat="48.40273" lon="6.7802">
        <ele>346.69</ele>
        <time>2015-02-05T15:04:45Z</time>
      </trkpt>
      <trkpt lat="48.40247" lon="6.77985">
        <ele>350.54</ele>
        <time>2015-02-05T15:05:12Z</time>
      </trkpt>
      <trkpt lat="48.40229" lon="6.77955">
        <ele>352.94</ele>
        <time>2015-02-05T15:05:37Z</time>
      </trkpt>
      <trkpt lat="48.40216" lon="6.77927">
        <ele>354.86</ele>
        <time>2015-02-05T15:06:03Z</time>
      </trkpt>
      <trkpt lat="48.40199" lon="6.77892">
        <ele>355.34</ele>
        <time>2015-02-05T15:06:39Z</time>
      </trkpt>
      <trkpt lat="48.40169" lon="6.77868">
        <ele>354.86</ele>
        <time>2015-02-05T15:07:25Z</time>
      </trkpt>
      <trkpt lat="48.40154" lon="6.77908">
        <ele>355.83</ele>
        <time>2015-02-05T15:08:28Z</time>
      </trkpt>
      <trkpt lat="48.40143" lon="6.77958">
        <ele>354.86</ele>
        <time>2015-02-05T15:08:59Z</time>
      </trkpt>
      <trkpt lat="48.40127" lon="6.77991">
        <ele>354.86</ele>
        <time>2015-02-05T15:09:24Z</time>
      </trkpt>
      <trkpt lat="48.40125" lon="6.78046">
        <ele>354.38</ele>
        <time>2015-02-05T15:10:00Z</time>
      </trkpt>
      <trkpt lat="48.40127" lon="6.78111">
        <ele>349.1</ele>
        <time>2015-02-05T15:10:38Z</time>
      </trkpt>
      <trkpt lat="48.40126" lon="6.78172">
        <ele>342.85</ele>
        <time>2015-02-05T15:11:15Z</time>
      </trkpt>
      <trkpt lat="48.40126" lon="6.78212">
        <ele>339.48</ele>
        <time>2015-02-05T15:11:51Z</time>
      </trkpt>
      <trkpt lat="48.40141" lon="6.78235">
        <ele>337.56</ele>
        <time>2015-02-05T15:15:00Z</time>
      </trkpt>
      <trkpt lat="48.40155" lon="6.7827">
        <ele>334.2</ele>
        <time>2015-02-05T15:15:25Z</time>
      </trkpt>
      <trkpt lat="48.4017" lon="6.78303">
        <ele>331.31</ele>
        <time>2015-02-05T15:15:47Z</time>
      </trkpt>
      <trkpt lat="48.40181" lon="6.78335">
        <ele>328.91</ele>
        <time>2015-02-05T15:16:09Z</time>
      </trkpt>
      <trkpt lat="48.40187" lon="6.78374">
        <ele>327.95</ele>
        <time>2015-02-05T15:16:30Z</time>
      </trkpt>
      <trkpt lat="48.40196" lon="6.78412">
        <ele>328.91</ele>
        <time>2015-02-05T15:16:55Z</time>
      </trkpt>
      <trkpt lat="48.40198" lon="6.78462">
        <ele>328.43</ele>
        <time>2015-02-05T15:17:23Z</time>
      </trkpt>
      <trkpt lat="48.40197" lon="6.78523">
        <ele>326.99</ele>
        <time>2015-02-05T15:17:58Z</time>
      </trkpt>
      <trkpt lat="48.40204" lon="6.78586">
        <ele>323.62</ele>
        <time>2015-02-05T15:18:29Z</time>
      </trkpt>
      <trkpt lat="48.40191" lon="6.78656">
        <ele>320.26</ele>
        <time>2015-02-05T15:19:06Z</time>
      </trkpt>
      <trkpt lat="48.40179" lon="6.78698">
        <ele>320.26</ele>
        <time>2015-02-05T15:19:29Z</time>
      </trkpt>
      <trkpt lat="48.40165" lon="6.78732">
        <ele>319.3</ele>
        <time>2015-02-05T15:19:56Z</time>
      </trkpt>
      <trkpt lat="48.40137" lon="6.78766">
        <ele>315.93</ele>
        <time>2015-02-05T15:20:25Z</time>
      </trkpt>
      <trkpt lat="48.40124" lon="6.78812">
        <ele>310.64</ele>
        <time>2015-02-05T15:20:53Z</time>
      </trkpt>
      <trkpt lat="48.40142" lon="6.78832">
        <ele>309.2</ele>
        <time>2015-02-05T15:21:16Z</time>
      </trkpt>
      <trkpt lat="48.40162" lon="6.78841">
        <ele>309.2</ele>
        <time>2015-02-05T15:21:33Z</time>
      </trkpt>
      <trkpt lat="48.4018" lon="6.78854">
        <ele>308.72</ele>
        <time>2015-02-05T15:21:48Z</time>
      </trkpt>
      <trkpt lat="48.402" lon="6.78867">
        <ele>308.24</ele>
        <time>2015-02-05T15:22:04Z</time>
      </trkpt>
      <trkpt lat="48.40222" lon="6.78875">
        <ele>307.28</ele>
        <time>2015-02-05T15:22:22Z</time>
      </trkpt>
      <trkpt lat="48.40233" lon="6.78875">
        <ele>306.8</ele>
        <time>2015-02-05T15:23:25Z</time>
      </trkpt>
      <trkpt lat="48.40236" lon="6.78875">
        <ele>306.8</ele>
        <time>2015-02-05T15:23:44Z</time>
      </trkpt>
      <trkpt lat="48.40218" lon="6.78866">
        <ele>307.28</ele>
        <time>2015-02-05T15:23:59Z</time>
      </trkpt>
    </trkseg>
  </trk>
</gpx>